Time;durP1;ratioP1;P1;durP2;ratioP2;P2;SDS_P1;SDS_P2;PMS_P1;PMS_P2;Temp;Humidity;BMP_temperature;BMP_pressure;BME280_temperature;BME280_humidity;BME280_pressure;Samples;Min_cycle;Max_cycle;Signal;HPM_P1;HPM_P2
2021/09/23 00:00:06;;;;;;;4.42;2.60;;;;;;;6.05;100.00;99276.13;1708094;84;21489;-72
2021/09/23 00:05:23;;;;;;;4.67;2.72;;;;;;;6.07;100.00;99276.65;1680434;84;21091;-73
2021/09/23 00:07:54;;;;;;;6.30;3.37;;;;;;;6.09;100.00;99276.36;1686028;83;21036;-73
2021/09/23 00:10:31;;;;;;;4.87;3.37;;;;;;;6.10;100.00;99276.06;1700135;83;20989;-73
2021/09/23 00:12:58;;;;;;;3.90;2.83;;;;;;;6.09;100.00;99278.53;1707303;83;21424;-73
2021/09/23 00:15:26;;;;;;;5.58;3.17;;;;;;;6.06;100.00;99277.75;1707954;84;21000;-73
2021/09/23 00:17:57;;;;;;;5.67;2.75;;;;;;;6.05;100.00;99278.86;1707741;83;21155;-73
2021/09/23 00:20:28;;;;;;;4.53;3.02;;;;;;;6.06;100.00;99278.30;1703992;83;20902;-72
2021/09/23 00:22:54;;;;;;;5.17;3.33;;;;;;;6.07;100.00;99273.92;1700429;83;21504;-72
2021/09/23 00:25:21;;;;;;;3.75;2.75;;;;;;;6.08;100.00;99278.27;1696729;83;21088;-73
2021/09/23 00:27:48;;;;;;;6.08;3.52;;;;;;;6.09;100.00;99284.53;1691663;83;20937;-72
2021/09/23 00:30:16;;;;;;;5.25;3.30;;;;;;;6.13;100.00;99281.48;1689652;83;21067;-73
2021/09/23 00:32:43;;;;;;;5.20;3.20;;;;;;;6.12;100.00;99275.22;1691996;84;21610;-72
2021/09/23 00:35:10;;;;;;;5.03;3.08;;;;;;;6.13;100.00;99271.94;1689714;84;20898;-72
2021/09/23 00:37:37;;;;;;;6.95;3.40;;;;;;;6.09;100.00;99271.72;1689583;83;21009;-73
2021/09/23 00:40:08;;;;;;;5.58;3.47;;;;;;;6.08;100.00;99272.02;1705393;83;20898;-73
2021/09/23 00:42:37;;;;;;;5.37;3.75;;;;;;;6.06;100.00;99271.49;1705451;83;21804;-75
2021/09/23 00:45:06;;;;;;;7.08;4.03;;;;;;;6.05;100.00;99269.87;1685947;83;21566;-74
2021/09/23 00:47:34;;;;;;;7.50;4.20;;;;;;;6.06;100.00;99274.22;1706871;84;20945;-74
2021/09/23 00:50:01;;;;;;;5.97;4.25;;;;;;;6.04;100.00;99277.23;1704757;83;21158;-74
2021/09/23 00:52:31;;;;;;;7.35;4.20;;;;;;;6.04;100.00;99273.70;1703860;83;20946;-75
2021/09/23 00:54:58;;;;;;;5.95;3.92;;;;;;;6.03;100.00;99272.89;1682008;84;21854;-75
2021/09/23 00:57:24;;;;;;;8.15;4.00;;;;;;;6.03;100.00;99273.44;1694919;83;20993;-74
2021/09/23 00:59:54;;;;;;;9.05;3.87;;;;;;;6.04;100.00;99283.23;1705860;84;20986;-75
2021/09/23 01:02:22;;;;;;;6.42;4.35;;;;;;;6.05;100.00;99282.13;1697125;83;21069;-74
2021/09/23 01:04:50;;;;;;;6.70;3.77;;;;;;;6.06;100.00;99279.67;1703782;83;20894;-74
2021/09/23 01:07:18;;;;;;;6.67;3.83;;;;;;;6.06;100.00;99276.39;1698603;83;21126;-73
2021/09/23 01:09:50;;;;;;;8.30;4.85;;;;;;;6.05;100.00;99277.49;1688519;83;20902;-74
2021/09/23 01:12:18;;;;;;;9.23;4.45;;;;;;;6.07;100.00;99282.66;1686091;83;21091;-73
2021/09/23 01:14:45;;;;;;;6.60;4.00;;;;;;;6.07;100.00;99276.65;1702823;83;20894;-73
2021/09/23 01:17:12;;;;;;;7.62;4.80;;;;;;;6.08;100.00;99276.09;1696671;83;21525;-72
2021/09/23 01:19:42;;;;;;;8.45;4.53;;;;;;;6.08;100.00;99286.45;1696168;83;21151;-73
2021/09/23 01:22:09;;;;;;;6.55;4.05;;;;;;;6.07;100.00;99285.37;1703551;83;21002;-73
2021/09/23 01:24:41;;;;;;;5.53;4.57;;;;;;;6.08;100.00;99283.72;1681388;83;21033;-74
2021/09/23 01:27:09;;;;;;;7.47;4.67;;;;;;;6.08;100.00;99281.00;1679047;84;21794;-77
2021/09/23 01:29:38;;;;;;;10.18;4.10;;;;;;;6.09;100.00;99283.98;1691281;83;21413;-72
2021/09/23 01:32:09;;;;;;;7.62;4.05;;;;;;;6.09;100.00;99283.98;1703772;83;20965;-71
2021/09/23 01:34:37;;;;;;;5.78;4.53;;;;;;;6.08;100.00;99284.27;1686673;83;21024;-72
2021/09/23 01:37:05;;;;;;;8.00;3.92;;;;;;;6.06;100.00;99278.30;1704323;83;21072;-73
2021/09/23 01:39:34;;;;;;;6.45;4.30;;;;;;;6.03;100.00;99276.97;1692632;83;21619;-73
2021/09/23 01:42:04;;;;;;;7.05;4.03;;;;;;;6.02;100.00;99277.27;1702939;83;20992;-73
2021/09/23 01:44:33;;;;;;;6.47;3.75;;;;;;;6.03;100.00;99280.25;1693084;83;20942;-71
2021/09/23 01:47:03;;;;;;;6.62;3.95;;;;;;;5.96;100.00;99274.61;1700426;84;20965;-73
2021/09/23 01:49:32;;;;;;;9.05;4.37;;;;;;;5.94;100.00;99272.72;1696608;83;21497;-71
2021/09/23 01:51:58;;;;;;;8.55;4.45;;;;;;;5.94;100.00;99271.36;1699032;83;20946;-74
2021/09/23 01:54:27;;;;;;;8.63;4.65;;;;;;;5.94;100.00;99277.36;1706202;84;20906;-73
2021/09/23 01:56:56;;;;;;;7.90;4.92;;;;;;;5.94;100.00;99273.27;1707702;83;20931;-72
2021/09/23 01:59:24;;;;;;;8.13;4.65;;;;;;;5.92;100.00;99280.38;1707706;84;21490;-73
2021/09/23 02:01:53;;;;;;;7.50;4.03;;;;;;;5.89;100.00;99272.78;1696741;83;21033;-73
2021/09/23 02:04:20;;;;;;;6.87;4.65;;;;;;;5.87;100.00;99265.42;1696280;83;21047;-72
2021/09/23 02:06:47;;;;;;;6.20;4.25;;;;;;;5.88;100.00;99271.68;1686020;84;20945;-74
2021/09/23 02:09:16;;;;;;;7.20;4.15;;;;;;;5.88;100.00;99277.13;1701951;84;21461;-73
2021/09/23 02:11:43;;;;;;;6.42;4.40;;;;;;;5.88;100.00;99275.77;1700382;83;21531;-73
2021/09/23 02:14:10;;;;;;;8.18;4.80;;;;;;;5.89;100.00;99272.78;1694903;83;20998;-73
2021/09/23 02:16:38;;;;;;;5.33;4.10;;;;;;;5.91;100.00;99263.77;1699366;83;20982;-73
2021/09/23 02:19:25;;;;;;;8.65;4.62;;;;;;;5.93;100.00;99267.02;1678705;82;21029;-73
2021/09/23 02:21:52;;;;;;;5.58;4.30;;;;;;;5.90;100.00;99268.14;1707607;83;21783;-73
2021/09/23 02:24:19;;;;;;;5.55;3.77;;;;;;;5.90;100.00;99266.78;1696667;83;21021;-74
2021/09/23 02:26:47;;;;;;;6.95;4.08;;;;;;;5.91;100.00;99265.12;1707765;84;21457;-74
2021/09/23 02:29:13;;;;;;;7.40;4.28;;;;;;;5.92;100.00;99262.67;1708122;84;20989;-74
2021/09/23 02:31:41;;;;;;;8.63;5.03;;;;;;;5.94;100.00;99261.83;1707712;84;21555;-73
2021/09/23 02:34:08;;;;;;;6.80;4.42;;;;;;;5.95;100.00;99260.72;1698865;83;21148;-73
2021/09/23 02:36:35;;;;;;;9.73;4.20;;;;;;;5.94;100.00;99263.19;1684084;84;20989;-73
2021/09/23 02:39:02;;;;;;;7.00;3.75;;;;;;;5.93;100.00;99261.56;1689489;83;20984;-73
2021/09/23 02:41:31;;;;;;;5.67;3.55;;;;;;;5.90;100.00;99260.78;1704438;83;21001;-73
2021/09/23 02:43:59;;;;;;;7.33;4.53;;;;;;;5.86;100.00;99261.08;1675272;83;21077;-73
2021/09/23 02:46:26;;;;;;;5.08;3.90;;;;;;;5.85;100.00;99262.18;1670850;83;21100;-74
2021/09/23 02:48:55;;;;;;;6.58;3.90;;;;;;;5.87;100.00;99262.70;1679259;83;20938;-74
2021/09/23 02:51:23;;;;;;;6.33;3.62;;;;;;;5.89;100.00;99267.34;1691544;83;21008;-74
2021/09/23 02:53:50;;;;;;;5.65;3.70;;;;;;;5.91;100.00;99265.12;1707620;84;20914;-74
2021/09/23 02:56:17;;;;;;;5.42;3.20;;;;;;;5.92;100.00;99258.58;1703791;83;21061;-73
2021/09/23 02:58:47;;;;;;;6.10;3.77;;;;;;;5.94;100.00;99262.37;1693806;83;21405;-75
2021/09/23 03:01:15;;;;;;;5.30;3.60;;;;;;;5.92;100.00;99262.67;1692300;83;21406;-76
2021/09/23 03:03:43;;;;;;;5.28;3.70;;;;;;;5.90;100.00;99260.78;1696984;83;20942;-74
2021/09/23 03:06:09;;;;;;;4.95;3.58;;;;;;;5.88;100.00;99260.78;1701760;83;21084;-75
2021/09/23 03:08:36;;;;;;;7.65;4.33;;;;;;;5.87;100.00;99260.53;1685955;83;21004;-74
2021/09/23 03:11:04;;;;;;;6.70;4.20;;;;;;;5.88;100.00;99267.59;1697624;83;22360;-76
2021/09/23 03:13:31;;;;;;;4.33;3.55;;;;;;;5.85;100.00;99258.09;1685738;84;20946;-75
2021/09/23 03:15:58;;;;;;;10.93;4.05;;;;;;;5.85;100.00;99262.18;1697617;83;20914;-75
2021/09/23 03:18:27;;;;;;;5.22;3.50;;;;;;;5.85;100.00;99261.37;1671411;82;20987;-74
2021/09/23 03:20:56;;;;;;;6.42;3.85;;;;;;;5.86;100.00;99261.63;1696944;83;21016;-74
2021/09/23 03:23:24;;;;;;;6.25;3.33;;;;;;;5.87;100.00;99270.88;1703833;82;21003;-74
2021/09/23 03:25:53;;;;;;;5.70;3.80;;;;;;;5.86;100.00;99261.63;1690620;84;20940;-74
2021/09/23 03:28:21;;;;;;;6.10;3.70;;;;;;;5.84;100.00;99261.92;1689826;84;20974;-74
2021/09/23 03:30:48;;;;;;;6.60;4.05;;;;;;;5.84;100.00;99259.20;1686924;84;21051;-74
2021/09/23 03:33:15;;;;;;;6.53;3.72;;;;;;;5.84;100.00;99262.47;1691205;84;20951;-73
2021/09/23 03:35:41;;;;;;;5.40;4.08;;;;;;;5.83;100.00;99254.04;1687333;84;21118;-73
2021/09/23 03:38:09;;;;;;;6.90;4.33;;;;;;;5.81;100.00;99258.41;1690425;84;20892;-73
2021/09/23 03:40:39;;;;;;;4.62;3.90;;;;;;;5.78;100.00;99260.91;1690367;84;20996;-73
2021/09/23 03:43:06;;;;;;;6.97;4.30;;;;;;;5.77;100.00;99260.68;1688887;84;20908;-73
2021/09/23 03:45:35;;;;;;;7.15;4.87;;;;;;;5.76;100.00;99257.70;1692048;84;20940;-74
2021/09/23 03:48:04;;;;;;;8.08;4.60;;;;;;;5.75;100.00;99258.25;1690355;84;21125;-73
2021/09/23 03:50:34;;;;;;;7.12;4.92;;;;;;;5.75;100.00;99256.89;1692066;84;20943;-73
2021/09/23 03:53:01;;;;;;;6.90;5.08;;;;;;;5.76;100.00;99253.61;1691534;84;20916;-73
2021/09/23 03:55:28;;;;;;;8.85;5.80;;;;;;;5.77;100.00;99252.51;1688101;84;20995;-73
2021/09/23 03:57:55;;;;;;;10.78;5.35;;;;;;;5.76;100.00;99257.14;1673782;84;21554;-74
2021/09/23 04:00:25;;;;;;;10.05;5.75;;;;;;;5.78;100.00;99259.55;1689780;84;20986;-73
2021/09/23 04:02:53;;;;;;;7.90;5.00;;;;;;;5.81;100.00;99263.05;1691345;84;21523;-72
2021/09/23 04:05:22;;;;;;;8.18;4.80;;;;;;;5.82;100.00;99263.31;1675097;84;21052;-72
2021/09/23 04:07:50;;;;;;;8.80;5.47;;;;;;;5.81;100.00;99256.23;1687215;84;20899;-72
2021/09/23 04:10:18;;;;;;;9.60;5.30;;;;;;;5.79;100.00;99261.98;1690443;84;21582;-72
2021/09/23 04:12:47;;;;;;;5.97;4.37;;;;;;;5.79;100.00;99260.62;1691644;84;20925;-72
2021/09/23 04:15:13;;;;;;;6.58;4.80;;;;;;;5.81;100.00;99262.50;1668388;83;21015;-72
2021/09/23 04:17:40;;;;;;;6.90;4.30;;;;;;;5.85;100.00;99260.81;1690262;84;20864;-73
2021/09/23 04:20:08;;;;;;;7.60;4.62;;;;;;;5.87;100.00;99260.53;1677217;84;20943;-73
2021/09/23 04:22:36;;;;;;;8.25;4.67;;;;;;;5.90;100.00;99252.61;1688411;84;20975;-73
2021/09/23 04:25:06;;;;;;;7.78;4.70;;;;;;;5.94;100.00;99256.38;1687082;84;21143;-73
2021/09/23 04:27:34;;;;;;;8.93;5.22;;;;;;;5.95;100.00;99263.45;1678378;84;20995;-73
2021/09/23 04:30:01;;;;;;;7.22;4.42;;;;;;;5.95;100.00;99263.45;1691435;84;20904;-73
2021/09/23 04:32:28;;;;;;;8.73;4.92;;;;;;;5.94;100.00;99266.46;1688424;84;20931;-72
2021/09/23 04:34:56;;;;;;;8.60;4.97;;;;;;;5.95;100.00;99268.09;1687246;84;20927;-72
2021/09/23 04:37:22;;;;;;;7.75;4.83;;;;;;;5.95;100.00;99270.26;1671087;84;21053;-74
2021/09/23 04:39:51;;;;;;;9.00;5.37;;;;;;;5.97;100.00;99265.88;1687463;84;21104;-73
2021/09/23 04:42:18;;;;;;;11.22;5.55;;;;;;;6.00;100.00;99271.30;1688774;84;20968;-72
2021/09/23 04:44:45;;;;;;;8.85;4.55;;;;;;;6.03;100.00;99267.44;1688207;84;21042;-72
2021/09/23 04:47:12;;;;;;;9.43;5.83;;;;;;;6.06;100.00;99271.49;1688729;84;20939;-72
2021/09/23 04:49:44;;;;;;;9.70;5.87;;;;;;;6.06;100.00;99270.94;1688030;84;21546;-73
2021/09/23 04:52:11;;;;;;;9.83;5.42;;;;;;;6.08;100.00;99266.56;1670590;84;22530;-73
2021/09/23 04:54:40;;;;;;;7.08;5.22;;;;;;;6.09;100.00;99270.91;1691459;84;20853;-72
2021/09/23 04:57:07;;;;;;;7.00;5.05;;;;;;;6.12;100.00;99271.69;1687318;84;22179;-72
2021/09/23 04:59:36;;;;;;;9.25;5.55;;;;;;;6.15;100.00;99275.19;1687607;84;20856;-72
2021/09/23 05:02:04;;;;;;;7.50;5.05;;;;;;;6.15;100.00;99274.64;1688849;84;23202;-73
2021/09/23 05:04:31;;;;;;;8.83;4.95;;;;;;;6.16;100.00;99267.27;1690549;83;20956;-72
2021/09/23 05:06:58;;;;;;;7.00;4.65;;;;;;;6.17;100.00;99270.25;1679280;84;21538;-72
2021/09/23 05:09:27;;;;;;;6.50;4.85;;;;;;;6.15;100.00;99265.65;1689605;84;21111;-71
2021/09/23 05:11:58;;;;;;;8.08;5.15;;;;;;;6.16;100.00;99271.36;1687849;84;21022;-72
2021/09/23 05:14:26;;;;;;;6.97;4.30;;;;;;;6.17;100.00;99264.25;1686979;84;21141;-72
2021/09/23 05:16:55;;;;;;;6.28;5.08;;;;;;;6.20;100.00;99262.86;1688643;84;20943;-69
2021/09/23 05:19:24;;;;;;;6.40;4.30;;;;;;;6.22;100.00;99263.38;1690862;84;21106;-83
2021/09/23 05:21:50;;;;;;;6.30;4.95;;;;;;;6.23;100.00;99269.08;1700153;83;21158;-76
2021/09/23 05:24:18;;;;;;;7.30;4.67;;;;;;;6.25;100.00;99270.41;1703610;83;20958;-72
2021/09/23 05:26:45;;;;;;;6.83;4.97;;;;;;;6.29;100.00;99267.36;1707670;84;22119;-72
2021/09/23 05:29:12;;;;;;;7.67;5.08;;;;;;;6.37;100.00;99270.50;1685197;84;21068;-73
2021/09/23 05:31:38;;;;;;;7.17;4.87;;;;;;;6.45;100.00;99274.73;1698215;83;20862;-72
2021/09/23 05:34:05;;;;;;;5.85;4.15;;;;;;;6.55;100.00;99274.59;1685800;83;21426;-69
2021/09/23 05:36:32;;;;;;;5.70;4.45;;;;;;;6.59;100.00;99274.25;1701746;83;21092;-72
2021/09/23 05:39:03;;;;;;;7.95;4.35;;;;;;;6.62;100.00;99279.12;1674355;84;21536;-71
2021/09/23 05:41:31;;;;;;;6.12;3.95;;;;;;;6.66;100.00;99286.16;1656676;85;21053;-78
2021/09/23 05:44:00;;;;;;;5.85;3.92;;;;;;;6.75;100.00;99278.92;1663361;85;20981;-73
2021/09/23 05:46:28;;;;;;;7.87;3.85;;;;;;;6.84;100.00;99274.97;1679515;85;21012;-74
2021/09/23 05:48:54;;;;;;;10.18;3.85;;;;;;;6.92;100.00;99277.02;1679211;84;20965;-76
2021/09/23 05:51:20;;;;;;;6.08;4.35;;;;;;;7.02;100.00;99282.28;1694931;83;21051;-72
2021/09/23 05:53:47;;;;;;;9.03;4.30;;;;;;;7.13;100.00;99277.46;1691384;83;21473;-73
2021/09/23 05:56:15;;;;;;;7.70;3.72;;;;;;;7.22;100.00;99284.67;1691099;83;21493;-75
2021/09/23 05:58:43;;;;;;;7.92;3.60;;;;;;;7.33;100.00;99282.56;1702788;84;20910;-74
2021/09/23 06:01:09;;;;;;;5.62;3.95;;;;;;;7.40;100.00;99279.45;1707895;83;20851;-73
2021/09/23 06:03:36;;;;;;;7.75;4.60;;;;;;;7.48;100.00;99279.56;1702873;83;21894;-68
2021/09/23 06:06:03;;;;;;;6.83;4.12;;;;;;;7.57;100.00;99278.28;1690783;84;21022;-70
2021/09/23 06:08:30;;;;;;;9.50;5.35;;;;;;;7.61;100.00;99276.00;1685271;84;20962;-69
2021/09/23 06:10:57;;;;;;;10.95;6.70;;;;;;;7.61;100.00;99273.83;1682437;84;20968;-73
2021/09/23 06:13:24;;;;;;;7.78;4.53;;;;;;;7.63;100.00;99275.70;1681608;84;21527;-69
2021/09/23 06:15:52;;;;;;;7.87;4.08;;;;;;;7.69;100.00;99275.05;1685115;84;20962;-70
2021/09/23 06:18:22;;;;;;;4.30;3.17;;;;;;;7.74;100.00;99286.69;1640647;85;21558;-69
2021/09/23 06:20:50;;;;;;;6.33;3.98;;;;;;;7.75;100.00;99285.58;1674947;84;21434;-72
2021/09/23 06:23:16;;;;;;;5.33;3.50;;;;;;;7.69;100.00;99284.61;1707074;83;21044;-70
2021/09/23 06:25:43;;;;;;;6.42;3.58;;;;;;;7.68;100.00;99281.06;1707694;84;20977;-71
2021/09/23 06:28:11;;;;;;;5.10;3.10;;;;;;;7.71;100.00;99285.93;1700334;83;21017;-69
2021/09/23 06:30:40;;;;;;;3.90;2.70;;;;;;;7.73;100.00;99292.45;1707472;83;20949;-74
2021/09/23 06:33:06;;;;;;;3.87;2.90;;;;;;;7.73;100.00;99292.45;1717623;83;20935;-70
2021/09/23 06:35:33;;;;;;;4.40;2.60;;;;;;;7.75;100.00;99292.41;1718616;82;20971;-70
2021/09/23 06:38:00;;;;;;;2.58;2.08;;;;;;;7.80;100.00;99288.21;1717300;83;20939;-68
2021/09/23 06:40:27;;;;;;;3.80;2.20;;;;;;;7.77;100.00;99288.81;1699155;83;21093;-73
2021/09/23 06:42:53;;;;;;;2.83;2.00;;;;;;;7.71;99.70;99285.93;1697486;83;21012;-69
2021/09/23 06:45:22;;;;;;;3.08;2.25;;;;;;;7.65;99.30;99285.77;1707331;84;21052;-73
2021/09/23 06:47:54;;;;;;;3.47;2.40;;;;;;;7.59;99.04;99291.89;1708059;83;20989;-73
2021/09/23 06:50:22;;;;;;;5.00;2.58;;;;;;;7.55;99.57;99293.60;1706632;84;20965;-77
2021/09/23 06:53:00;;;;;;;3.22;2.17;;;;;;;7.52;99.74;99290.66;1688581;84;20969;-73
2021/09/23 06:55:30;;;;;;;3.62;2.60;;;;;;;7.50;100.00;99299.75;1670519;86;20972;-74
2021/09/23 06:58:00;;;;;;;3.67;2.20;;;;;;;7.45;99.64;99293.01;1627273;86;20919;-72
2021/09/23 07:00:53;;;;;;;3.30;2.17;;;;;;;7.37;99.36;99293.70;1645273;86;20951;-72
2021/09/23 07:03:39;;;;;;;3.12;2.22;;;;;;;7.32;100.00;99294.60;1644270;87;20916;-69
2021/09/23 07:06:32;;;;;;;3.85;1.98;;;;;;;7.33;100.00;99296.78;1625746;87;20897;-70
2021/09/23 07:09:02;;;;;;;3.65;1.95;;;;;;;7.32;100.00;99298.70;1626214;87;20904;-70
2021/09/23 07:11:31;;;;;;;5.45;3.00;;;;;;;7.26;100.00;99296.61;1644108;87;22160;-73
2021/09/23 07:14:03;;;;;;;4.85;3.00;;;;;;;7.23;100.00;99298.57;1625757;87;20931;-71
2021/09/23 07:16:32;;;;;;;3.58;2.70;;;;;;;7.33;100.00;99296.78;1644617;87;21011;-75
2021/09/23 07:19:04;;;;;;;5.17;3.20;;;;;;;7.42;100.00;99296.34;1644484;87;21222;-74
2021/09/23 07:21:38;;;;;;;5.78;2.98;;;;;;;7.52;100.00;99290.66;1644476;86;21042;-71
2021/09/23 07:24:10;;;;;;;3.37;2.55;;;;;;;7.69;100.00;99288.71;1644357;86;21458;-76
2021/09/23 07:26:40;;;;;;;5.97;3.02;;;;;;;7.78;100.00;99290.99;1625708;87;20939;-76
2021/09/23 07:29:15;;;;;;;4.90;2.62;;;;;;;7.84;100.00;99292.52;1644537;87;20975;-78
2021/09/23 07:31:43;;;;;;;3.35;2.33;;;;;;;7.80;100.00;99290.13;1644212;86;21104;-77
2021/09/23 07:34:15;;;;;;;3.65;2.25;;;;;;;7.74;100.00;99290.78;1644360;87;20984;-73
2021/09/23 07:36:45;;;;;;;2.30;1.60;;;;;;;7.71;100.00;99290.02;1625834;86;21046;-69
2021/09/23 07:39:17;;;;;;;2.70;1.40;;;;;;;7.66;100.00;99295.59;1647390;87;21095;-77
2021/09/23 07:41:50;;;;;;;2.05;1.65;;;;;;;7.56;99.53;99291.68;1644611;87;21006;-69
2021/09/23 07:44:25;;;;;;;2.15;1.67;;;;;;;7.52;99.88;99298.86;1644482;87;21226;-70
2021/09/23 07:47:02;;;;;;;3.10;1.87;;;;;;;7.47;99.98;99292.97;1644399;87;21019;-69
2021/09/23 07:49:35;;;;;;;2.05;1.70;;;;;;;7.46;100.00;99293.27;1624823;87;21006;-72
2021/09/23 07:52:13;;;;;;;2.62;1.77;;;;;;;7.50;100.00;99297.82;1648023;86;20971;-73
2021/09/23 07:54:39;;;;;;;2.65;1.95;;;;;;;7.55;100.00;99287.33;1645234;86;20943;-72
2021/09/23 07:57:07;;;;;;;3.77;2.00;;;;;;;7.60;100.00;99289.41;1644880;87;21447;-74
2021/09/23 07:59:33;;;;;;;3.50;2.25;;;;;;;7.66;100.00;99279.75;1644721;87;20911;-79
2021/09/23 08:02:02;;;;;;;3.92;2.00;;;;;;;7.75;100.00;99282.84;1644899;86;20943;-74
2021/09/23 08:04:30;;;;;;;2.20;1.80;;;;;;;7.78;100.00;99280.88;1634919;85;21015;-74
2021/09/23 08:06:57;;;;;;;2.83;2.10;;;;;;;7.76;99.85;99275.45;1658498;85;21032;-75
2021/09/23 08:09:24;;;;;;;3.60;2.37;;;;;;;7.74;99.93;99281.78;1644919;85;21076;-75
2021/09/23 08:11:51;;;;;;;4.28;2.72;;;;;;;7.67;100.00;99278.08;1692754;83;21032;-75
2021/09/23 08:14:22;;;;;;;2.92;2.25;;;;;;;7.59;99.38;99282.88;1691482;83;21049;-74
2021/09/23 08:17:06;;;;;;;3.80;2.50;;;;;;;7.57;99.59;99281.01;1694638;83;20986;-73
2021/09/23 08:19:41;;;;;;;4.15;2.70;;;;;;;7.52;99.24;99281.91;1706455;83;21021;-74
2021/09/23 08:22:13;;;;;;;3.27;2.80;;;;;;;7.51;99.50;99283.02;1692399;84;21169;-73
2021/09/23 08:24:39;;;;;;;3.58;2.30;;;;;;;7.53;99.54;99284.90;1704010;83;21057;-73
2021/09/23 08:27:07;;;;;;;3.35;2.30;;;;;;;7.57;100.00;99283.73;1688986;83;20985;-74
2021/09/23 08:29:36;;;;;;;2.90;2.05;;;;;;;7.63;100.00;99278.44;1714610;83;21453;-72
2021/09/23 08:32:04;;;;;;;4.17;2.30;;;;;;;7.66;99.21;99277.83;1700552;83;21009;-76
2021/09/23 08:34:32;;;;;;;2.45;1.80;;;;;;;7.71;99.59;99276.37;1694405;82;21171;-74
2021/09/23 08:37:03;;;;;;;2.17;1.98;;;;;;;7.78;100.00;99274.04;1679282;83;21018;-75
2021/09/23 08:39:30;;;;;;;2.20;1.62;;;;;;;7.88;98.62;99274.39;1696615;83;20974;-74
2021/09/23 08:41:57;;;;;;;1.87;1.47;;;;;;;8.02;99.61;99270.28;1694649;83;21060;-74
2021/09/23 08:44:24;;;;;;;3.17;1.80;;;;;;;8.20;98.90;99258.38;1700264;83;21660;-74
2021/09/23 08:46:51;;;;;;;3.55;1.92;;;;;;;8.36;97.82;99264.36;1687099;83;21151;-74
2021/09/23 08:49:17;;;;;;;3.45;1.92;;;;;;;8.43;96.76;99262.02;1700697;83;21061;-74
2021/09/23 08:51:46;;;;;;;3.30;2.17;;;;;;;8.46;97.19;99266.87;1679539;85;21029;-77
2021/09/23 08:54:13;;;;;;;3.70;2.25;;;;;;;8.48;96.94;99264.63;1661572;85;21500;-76
2021/09/23 08:56:41;;;;;;;5.45;2.15;;;;;;;8.45;96.11;99271.53;1696371;83;20898;-75
2021/09/23 08:59:08;;;;;;;8.05;6.10;;;;;;;8.38;96.01;99268.97;1688148;84;21146;-76
2021/09/23 09:01:44;;;;;;;6.22;2.70;;;;;;;8.29;96.57;99268.85;1695430;83;21048;-73
2021/09/23 09:04:07;;;;;;;3.87;2.62;;;;;;;8.24;96.91;99275.24;1695779;83;21004;-71
2021/09/23 09:07:02;;;;;;;3.85;2.70;;;;;;;8.20;96.71;99267.95;1684671;83;21016;-71
2021/09/23 09:09:46;;;;;;;4.53;2.50;;;;;;;8.18;97.48;99269.63;1699639;83;21106;-72
2021/09/23 09:12:14;;;;;;;4.53;2.30;;;;;;;8.14;96.47;99270.55;1684889;84;21809;-72
2021/09/23 09:14:42;;;;;;;3.35;2.35;;;;;;;8.12;96.47;99267.31;1695821;82;21000;-72
2021/09/23 09:17:10;;;;;;;3.60;2.60;;;;;;;8.13;96.85;99260.73;1696644;84;21483;-72
2021/09/23 09:19:50;;;;;;;4.75;2.27;;;;;;;8.19;96.40;99259.50;1693335;84;21502;-73
2021/09/23 09:22:22;;;;;;;3.72;2.20;;;;;;;8.30;97.01;99263.63;1696437;84;21044;-74
2021/09/23 09:24:57;;;;;;;3.83;2.50;;;;;;;8.42;96.69;99258.47;1701501;83;21148;-84
2021/09/23 09:27:35;;;;;;;2.55;1.98;;;;;;;8.59;97.10;99260.55;1679517;84;20960;-76
2021/09/23 09:30:13;;;;;;;3.20;2.20;;;;;;;8.79;95.15;99253.19;1701419;84;20999;-75
2021/09/23 09:32:45;;;;;;;3.52;2.37;;;;;;;9.00;95.34;99249.95;1708736;83;21431;-73
2021/09/23 09:35:19;;;;;;;3.23;2.20;;;;;;;9.22;94.84;99250.75;1695493;83;21080;-76
2021/09/23 09:37:51;;;;;;;4.78;3.02;;;;;;;9.34;93.91;99247.95;1700075;83;21168;-74
2021/09/23 09:40:23;;;;;;;4.05;2.42;;;;;;;9.30;93.20;99256.55;1695785;84;21068;-73
2021/09/23 09:42:53;;;;;;;3.37;2.22;;;;;;;9.21;91.46;99257.91;1698765;84;21046;-72
2021/09/23 09:45:26;;;;;;;3.62;2.62;;;;;;;9.09;89.91;99254.93;1693984;83;21541;-73
2021/09/23 09:47:55;;;;;;;3.30;2.15;;;;;;;8.93;89.38;99262.72;1696787;83;21035;-73
2021/09/23 09:50:31;;;;;;;2.85;1.98;;;;;;;8.82;90.47;99262.71;1696600;83;21794;-73
2021/09/23 09:53:02;;;;;;;7.00;2.83;;;;;;;8.84;91.60;99252.27;1690386;83;20899;-73
2021/09/23 09:55:33;;;;;;;4.17;2.42;;;;;;;9.02;94.07;99250.45;1686199;84;21497;-73
2021/09/23 09:58:00;;;;;;;3.08;2.10;;;;;;;9.27;93.29;99256.06;1696605;83;20970;-74
2021/09/23 10:00:29;;;;;;;2.37;1.60;;;;;;;9.56;90.11;99258.86;1696497;84;21032;-73
2021/09/23 10:02:55;;;;;;;3.05;1.85;;;;;;;9.77;89.05;99252.27;1704701;84;21659;-73
2021/09/23 10:05:24;;;;;;;1.77;1.45;;;;;;;10.01;86.58;99254.56;1696929;83;20989;-74
2021/09/23 10:07:56;;;;;;;4.37;1.52;;;;;;;10.16;86.85;99256.30;1696931;83;21612;-73
2021/09/23 10:10:31;;;;;;;0.98;0.90;;;;;;;10.14;83.26;99260.48;1697248;83;20988;-74
2021/09/23 10:13:02;;;;;;;1.37;1.12;;;;;;;9.92;80.69;99266.31;1695256;83;20923;-74
2021/09/23 10:15:30;;;;;;;1.40;0.85;;;;;;;9.64;79.24;99262.20;1698672;84;21788;-74
2021/09/23 10:18:03;;;;;;;1.37;0.98;;;;;;;9.47;80.95;99260.75;1698332;83;20846;-73
2021/09/23 10:20:31;;;;;;;3.30;1.57;;;;;;;9.34;81.71;99262.46;1697421;83;21016;-73
2021/09/23 10:23:00;;;;;;;1.65;1.20;;;;;;;9.36;82.46;99256.67;1697678;83;21547;-74
2021/09/23 10:25:32;;;;;;;1.57;1.05;;;;;;;9.42;81.82;99252.67;1704542;84;21084;-73
2021/09/23 10:28:03;;;;;;;1.85;1.20;;;;;;;9.51;83.00;99252.95;1699833;83;21120;-73
2021/09/23 10:30:38;;;;;;;1.12;1.00;;;;;;;9.57;82.27;99259.92;1696988;83;21503;-77
2021/09/23 10:33:05;;;;;;;1.20;1.10;;;;;;;9.55;82.69;99253.14;1699478;83;20989;-77
2021/09/23 10:35:32;;;;;;;2.77;1.35;;;;;;;9.46;81.75;99255.03;1701605;84;21066;-77
2021/09/23 10:38:06;;;;;;;2.92;1.85;;;;;;;9.28;81.84;99260.42;1697009;83;21015;-74
2021/09/23 10:40:36;;;;;;;4.37;1.75;;;;;;;9.09;82.52;99257.11;1630157;86;22270;-78
2021/09/23 10:43:11;;;;;;;2.85;1.72;;;;;;;8.93;83.31;99257.23;1700537;83;21027;-78
2021/09/23 10:45:41;;;;;;;4.40;2.50;;;;;;;8.80;84.44;99263.02;1699334;83;20939;-74
2021/09/23 10:48:09;;;;;;;7.67;3.37;;;;;;;8.72;85.47;99257.48;1682231;84;21448;-81
2021/09/23 10:50:38;;;;;;;7.58;4.20;;;;;;;8.65;86.15;99265.34;1693696;83;20922;-74
2021/09/23 10:53:07;;;;;;;18.90;9.00;;;;;;;8.60;86.42;99258.06;1654790;85;21237;-75
2021/09/23 10:55:37;;;;;;;8.25;5.33;;;;;;;8.59;86.94;99254.52;1667777;85;20984;-75
2021/09/23 10:58:07;;;;;;;6.03;2.85;;;;;;;8.64;86.69;99251.41;1665596;86;20999;-75
2021/09/23 11:00:37;;;;;;;5.12;2.60;;;;;;;8.69;86.46;99255.36;1668788;85;20998;-73
2021/09/23 11:03:09;;;;;;;4.85;2.72;;;;;;;8.72;86.14;99251.45;1666209;85;21039;-74
2021/09/23 11:05:37;;;;;;;4.75;2.62;;;;;;;8.76;87.56;99253.81;1667838;86;21122;-75
2021/09/23 11:08:10;;;;;;;4.85;2.30;;;;;;;8.89;88.50;99258.98;1667059;85;21569;-74
2021/09/23 11:10:41;;;;;;;5.60;3.10;;;;;;;8.99;87.78;99252.45;1669489;84;21525;-74
2021/09/23 11:13:12;;;;;;;3.70;2.37;;;;;;;9.05;86.40;99258.05;1648835;85;21506;-74
2021/09/23 11:15:42;;;;;;;4.70;2.12;;;;;;;9.05;86.74;99256.11;1670991;85;20929;-74
2021/09/23 11:18:10;;;;;;;3.52;2.00;;;;;;;9.09;87.71;99256.30;1659484;85;21156;-74
2021/09/23 11:20:37;;;;;;;2.98;1.52;;;;;;;9.06;86.18;99260.47;1661794;85;20940;-74
2021/09/23 11:23:08;;;;;;;6.80;3.87;;;;;;;8.96;85.38;99256.61;1663453;85;20998;-74
2021/09/23 11:25:40;;;;;;;17.15;3.50;;;;;;;8.84;85.57;99268.69;1666716;85;21025;-75
2021/09/23 11:28:08;;;;;;;4.45;2.40;;;;;;;8.74;86.40;99275.20;1665793;85;21107;-75
2021/09/23 11:30:36;;;;;;;4.47;2.77;;;;;;;8.64;86.94;99272.74;1647574;86;21148;-75
2021/09/23 11:33:10;;;;;;;5.37;2.12;;;;;;;8.55;87.10;99268.56;1668373;85;21468;-75
2021/09/23 11:35:39;;;;;;;2.25;1.85;;;;;;;8.47;87.73;99266.56;1667926;85;20915;-74
2021/09/23 11:38:07;;;;;;;4.33;2.20;;;;;;;8.41;88.36;99263.69;1668390;85;20940;-75
2021/09/23 11:40:37;;;;;;;5.97;3.42;;;;;;;8.36;88.84;99272.01;1662532;85;21447;-74
2021/09/23 11:43:17;;;;;;;6.03;3.95;;;;;;;8.28;89.26;99263.13;1662580;83;21945;-75
2021/09/23 11:45:51;;;;;;;8.30;2.20;;;;;;;8.23;90.02;99264.61;1717398;83;21565;-74
2021/09/23 11:48:27;;;;;;;6.87;5.00;;;;;;;8.23;90.87;99265.98;1715398;83;20963;-74